sensor_id;sensor_type;location;lat;lon;timestamp;P1;P2;P0
49914;PMS5003;35806;47.958;13.158;2024-03-08T00:01:39;39;37;
49914;PMS5003;35806;47.958;13.158;2024-03-08T00:04:07;37;34;
49914;PMS5003;35806;47.958;13.158;2024-03-08T00:06:35;45;35;
49914;PMS5003;35806;47.958;13.158;2024-03-08T00:09:10;46;39;
49914;PMS5003;35806;47.958;13.158;2024-03-08T00:11:37;44;36;
49914;PMS5003;35806;47.958;13.158;2024-03-08T00:14:04;48;37;
49914;PMS5003;35806;47.958;13.158;2024-03-08T00:16:31;46;42;
49914;PMS5003;35806;47.958;13.158;2024-03-08T00:19:00;44;38;
49914;PMS5003;35806;47.958;13.158;2024-03-08T00:21:28;36;32;
49914;PMS5003;35806;47.958;13.158;2024-03-08T00:23:55;41;35;
49914;PMS5003;35806;47.958;13.158;2024-03-08T00:26:22;43;41;
49914;PMS5003;35806;47.958;13.158;2024-03-08T00:28:49;43;37;
49914;PMS5003;35806;47.958;13.158;2024-03-08T00:31:17;55;41;
49914;PMS5003;35806;47.958;13.158;2024-03-08T00:33:44;55;46;
49914;PMS5003;35806;47.958;13.158;2024-03-08T00:36:12;47;41;
49914;PMS5003;35806;47.958;13.158;2024-03-08T00:38:39;44;37;
49914;PMS5003;35806;47.958;13.158;2024-03-08T00:41:06;42;42;
49914;PMS5003;35806;47.958;13.158;2024-03-08T00:43:34;47;43;
49914;PMS5003;35806;47.958;13.158;2024-03-08T00:46:01;47;43;
49914;PMS5003;35806;47.958;13.158;2024-03-08T00:48:29;43;39;
49914;PMS5003;35806;47.958;13.158;2024-03-08T00:50:56;48;39;
49914;PMS5003;35806;47.958;13.158;2024-03-08T00:53:23;50;44;
49914;PMS5003;35806;47.958;13.158;2024-03-08T00:55:56;41;38;
49914;PMS5003;35806;47.958;13.158;2024-03-08T00:58:23;51;46;
49914;PMS5003;35806;47.958;13.158;2024-03-08T01:00:51;46;42;
49914;PMS5003;35806;47.958;13.158;2024-03-08T01:03:18;52;44;
49914;PMS5003;35806;47.958;13.158;2024-03-08T01:05:46;54;45;
49914;PMS5003;35806;47.958;13.158;2024-03-08T01:08:13;51;44;
49914;PMS5003;35806;47.958;13.158;2024-03-08T01:10:40;50;46;
49914;PMS5003;35806;47.958;13.158;2024-03-08T01:13:07;53;47;
49914;PMS5003;35806;47.958;13.158;2024-03-08T01:15:34;51;45;
49914;PMS5003;35806;47.958;13.158;2024-03-08T01:18:02;62;50;
49914;PMS5003;35806;47.958;13.158;2024-03-08T01:20:30;59;52;
49914;PMS5003;35806;47.958;13.158;2024-03-08T01:22:57;51;42;
49914;PMS5003;35806;47.958;13.158;2024-03-08T01:25:26;59;53;
49914;PMS5003;35806;47.958;13.158;2024-03-08T01:27:53;45;41;
49914;PMS5003;35806;47.958;13.158;2024-03-08T01:30:20;56;47;
49914;PMS5003;35806;47.958;13.158;2024-03-08T01:32:48;54;49;
49914;PMS5003;35806;47.958;13.158;2024-03-08T01:35:15;54;43;
49914;PMS5003;35806;47.958;13.158;2024-03-08T01:37:42;59;49;
49914;PMS5003;35806;47.958;13.158;2024-03-08T01:40:10;55;50;
49914;PMS5003;35806;47.958;13.158;2024-03-08T01:42:37;64;52;
49914;PMS5003;35806;47.958;13.158;2024-03-08T01:45:06;53;46;
49914;PMS5003;35806;47.958;13.158;2024-03-08T01:47:35;59;50;
49914;PMS5003;35806;47.958;13.158;2024-03-08T01:50:03;53;41;
49914;PMS5003;35806;47.958;13.158;2024-03-08T01:52:31;63;48;
49914;PMS5003;35806;47.958;13.158;2024-03-08T01:55:00;56;49;
49914;PMS5003;35806;47.958;13.158;2024-03-08T01:57:30;64;56;
49914;PMS5003;35806;47.958;13.158;2024-03-08T01:59:58;74;61;
49914;PMS5003;35806;47.958;13.158;2024-03-08T02:02:25;62;52;
49914;PMS5003;35806;47.958;13.158;2024-03-08T02:04:53;65;48;
49914;PMS5003;35806;47.958;13.158;2024-03-08T02:07:21;63;50;
49914;PMS5003;35806;47.958;13.158;2024-03-08T02:09:48;68;54;
49914;PMS5003;35806;47.958;13.158;2024-03-08T02:12:15;67;55;
49914;PMS5003;35806;47.958;13.158;2024-03-08T02:14:43;57;54;
49914;PMS5003;35806;47.958;13.158;2024-03-08T02:17:10;72;57;
49914;PMS5003;35806;47.958;13.158;2024-03-08T02:19:37;61;52;
49914;PMS5003;35806;47.958;13.158;2024-03-08T02:22:05;55;48;
49914;PMS5003;35806;47.958;13.158;2024-03-08T02:24:33;57;50;
49914;PMS5003;35806;47.958;13.158;2024-03-08T02:27:00;60;48;
49914;PMS5003;35806;47.958;13.158;2024-03-08T02:29:27;66;55;
49914;PMS5003;35806;47.958;13.158;2024-03-08T02:31:55;66;53;
49914;PMS5003;35806;47.958;13.158;2024-03-08T02:34:22;56;51;
49914;PMS5003;35806;47.958;13.158;2024-03-08T02:36:49;66;59;
49914;PMS5003;35806;47.958;13.158;2024-03-08T02:39:18;71;59;
49914;PMS5003;35806;47.958;13.158;2024-03-08T02:41:45;65;62;
49914;PMS5003;35806;47.958;13.158;2024-03-08T02:44:12;61;52;
49914;PMS5003;35806;47.958;13.158;2024-03-08T02:46:40;89;74;
49914;PMS5003;35806;47.958;13.158;2024-03-08T02:49:07;56;52;
49914;PMS5003;35806;47.958;13.158;2024-03-08T02:51:35;61;54;
49914;PMS5003;35806;47.958;13.158;2024-03-08T02:54:02;65;57;
49914;PMS5003;35806;47.958;13.158;2024-03-08T02:56:30;65;58;
49914;PMS5003;35806;47.958;13.158;2024-03-08T02:58:58;65;58;
49914;PMS5003;35806;47.958;13.158;2024-03-08T03:01:26;69;62;
49914;PMS5003;35806;47.958;13.158;2024-03-08T03:03:53;68;59;
49914;PMS5003;35806;47.958;13.158;2024-03-08T03:06:21;66;58;
49914;PMS5003;35806;47.958;13.158;2024-03-08T03:08:49;79;66;
49914;PMS5003;35806;47.958;13.158;2024-03-08T03:11:20;82;73;
49914;PMS5003;35806;47.958;13.158;2024-03-08T03:13:47;76;64;
49914;PMS5003;35806;47.958;13.158;2024-03-08T03:16:17;91;66;
49914;PMS5003;35806;47.958;13.158;2024-03-08T03:18:44;81;68;
49914;PMS5003;35806;47.958;13.158;2024-03-08T03:21:11;74;65;
49914;PMS5003;35806;47.958;13.158;2024-03-08T03:23:39;80;62;
49914;PMS5003;35806;47.958;13.158;2024-03-08T03:26:06;88;69;
49914;PMS5003;35806;47.958;13.158;2024-03-08T03:28:33;75;67;
49914;PMS5003;35806;47.958;13.158;2024-03-08T03:31:02;82;64;
49914;PMS5003;35806;47.958;13.158;2024-03-08T03:33:29;81;67;
49914;PMS5003;35806;47.958;13.158;2024-03-08T03:35:56;88;68;
49914;PMS5003;35806;47.958;13.158;2024-03-08T03:38:24;91;68;
49914;PMS5003;35806;47.958;13.158;2024-03-08T03:40:51;82;66;
49914;PMS5003;35806;47.958;13.158;2024-03-08T03:43:19;81;62;
49914;PMS5003;35806;47.958;13.158;2024-03-08T03:45:46;78;66;
49914;PMS5003;35806;47.958;13.158;2024-03-08T03:48:13;67;57;
49914;PMS5003;35806;47.958;13.158;2024-03-08T03:50:41;70;62;
49914;PMS5003;35806;47.958;13.158;2024-03-08T03:53:09;75;67;
49914;PMS5003;35806;47.958;13.158;2024-03-08T03:55:36;76;59;
49914;PMS5003;35806;47.958;13.158;2024-03-08T03:58:04;77;66;
49914;PMS5003;35806;47.958;13.158;2024-03-08T04:00:31;67;60;
49914;PMS5003;35806;47.958;13.158;2024-03-08T04:02:59;68;65;
49914;PMS5003;35806;47.958;13.158;2024-03-08T04:05:26;83;69;
49914;PMS5003;35806;47.958;13.158;2024-03-08T04:07:54;76;67;
49914;PMS5003;35806;47.958;13.158;2024-03-08T04:10:21;85;67;
49914;PMS5003;35806;47.958;13.158;2024-03-08T04:12:48;75;67;
49914;PMS5003;35806;47.958;13.158;2024-03-08T04:15:16;91;64;
49914;PMS5003;35806;47.958;13.158;2024-03-08T04:17:44;81;69;
49914;PMS5003;35806;47.958;13.158;2024-03-08T04:20:11;87;70;
49914;PMS5003;35806;47.958;13.158;2024-03-08T04:22:39;82;71;
49914;PMS5003;35806;47.958;13.158;2024-03-08T04:25:06;86;68;
49914;PMS5003;35806;47.958;13.158;2024-03-08T04:27:34;81;64;
49914;PMS5003;35806;47.958;13.158;2024-03-08T04:30:02;81;66;
49914;PMS5003;35806;47.958;13.158;2024-03-08T04:32:30;84;68;
49914;PMS5003;35806;47.958;13.158;2024-03-08T04:34:57;90;73;
49914;PMS5003;35806;47.958;13.158;2024-03-08T04:37:25;85;72;
49914;PMS5003;35806;47.958;13.158;2024-03-08T04:39:53;88;72;
49914;PMS5003;35806;47.958;13.158;2024-03-08T04:42:20;84;68;
49914;PMS5003;35806;47.958;13.158;2024-03-08T04:44:48;80;69;
49914;PMS5003;35806;47.958;13.158;2024-03-08T04:47:16;90;76;
49914;PMS5003;35806;47.958;13.158;2024-03-08T04:49:44;80;67;
49914;PMS5003;35806;47.958;13.158;2024-03-08T04:52:11;92;69;
49914;PMS5003;35806;47.958;13.158;2024-03-08T04:54:38;92;77;
49914;PMS5003;35806;47.958;13.158;2024-03-08T04:57:06;88;70;
49914;PMS5003;35806;47.958;13.158;2024-03-08T04:59:34;86;74;
49914;PMS5003;35806;47.958;13.158;2024-03-08T05:02:01;79;64;
49914;PMS5003;35806;47.958;13.158;2024-03-08T05:04:29;76;67;
49914;PMS5003;35806;47.958;13.158;2024-03-08T05:06:56;77;70;
49914;PMS5003;35806;47.958;13.158;2024-03-08T05:09:24;81;65;
49914;PMS5003;35806;47.958;13.158;2024-03-08T05:11:51;86;71;
49914;PMS5003;35806;47.958;13.158;2024-03-08T05:14:19;79;71;
49914;PMS5003;35806;47.958;13.158;2024-03-08T05:16:47;83;66;
49914;PMS5003;35806;47.958;13.158;2024-03-08T05:19:14;78;67;
49914;PMS5003;35806;47.958;13.158;2024-03-08T05:21:41;85;68;
49914;PMS5003;35806;47.958;13.158;2024-03-08T05:24:09;80;69;
49914;PMS5003;35806;47.958;13.158;2024-03-08T05:26:36;83;69;
49914;PMS5003;35806;47.958;13.158;2024-03-08T05:29:04;82;67;
49914;PMS5003;35806;47.958;13.158;2024-03-08T05:31:34;83;70;
49914;PMS5003;35806;47.958;13.158;2024-03-08T05:34:09;80;65;
49914;PMS5003;35806;47.958;13.158;2024-03-08T05:36:36;91;72;
49914;PMS5003;35806;47.958;13.158;2024-03-08T05:39:04;90;69;
49914;PMS5003;35806;47.958;13.158;2024-03-08T05:41:33;84;75;
49914;PMS5003;35806;47.958;13.158;2024-03-08T05:44:00;92;71;
49914;PMS5003;35806;47.958;13.158;2024-03-08T05:46:28;78;65;
49914;PMS5003;35806;47.958;13.158;2024-03-08T05:48:56;91;69;
49914;PMS5003;35806;47.958;13.158;2024-03-08T05:51:25;88;73;
49914;PMS5003;35806;47.958;13.158;2024-03-08T05:53:53;75;61;
49914;PMS5003;35806;47.958;13.158;2024-03-08T05:56:21;98;80;
49914;PMS5003;35806;47.958;13.158;2024-03-08T05:58:49;94;81;
49914;PMS5003;35806;47.958;13.158;2024-03-08T06:01:16;90;78;
49914;PMS5003;35806;47.958;13.158;2024-03-08T06:03:44;106;83;
49914;PMS5003;35806;47.958;13.158;2024-03-08T06:06:11;88;67;
49914;PMS5003;35806;47.958;13.158;2024-03-08T06:08:39;90;75;
49914;PMS5003;35806;47.958;13.158;2024-03-08T06:11:07;102;76;
49914;PMS5003;35806;47.958;13.158;2024-03-08T06:13:35;81;74;
49914;PMS5003;35806;47.958;13.158;2024-03-08T06:16:03;82;73;
49914;PMS5003;35806;47.958;13.158;2024-03-08T06:18:31;93;73;
49914;PMS5003;35806;47.958;13.158;2024-03-08T06:21:03;76;65;
49914;PMS5003;35806;47.958;13.158;2024-03-08T06:23:31;81;68;
49914;PMS5003;35806;47.958;13.158;2024-03-08T06:26:00;90;67;
49914;PMS5003;35806;47.958;13.158;2024-03-08T06:28:28;84;70;
49914;PMS5003;35806;47.958;13.158;2024-03-08T06:30:55;95;75;
49914;PMS5003;35806;47.958;13.158;2024-03-08T06:33:22;79;66;
49914;PMS5003;35806;47.958;13.158;2024-03-08T06:35:50;84;70;
49914;PMS5003;35806;47.958;13.158;2024-03-08T06:38:18;76;64;
49914;PMS5003;35806;47.958;13.158;2024-03-08T06:40:45;82;61;
49914;PMS5003;35806;47.958;13.158;2024-03-08T06:43:15;60;53;
49914;PMS5003;35806;47.958;13.158;2024-03-08T06:45:42;78;65;
49914;PMS5003;35806;47.958;13.158;2024-03-08T06:48:09;77;63;
49914;PMS5003;35806;47.958;13.158;2024-03-08T06:50:36;77;64;
49914;PMS5003;35806;47.958;13.158;2024-03-08T06:53:03;77;59;
49914;PMS5003;35806;47.958;13.158;2024-03-08T06:55:33;82;70;
49914;PMS5003;35806;47.958;13.158;2024-03-08T06:58:01;70;61;
49914;PMS5003;35806;47.958;13.158;2024-03-08T07:00:29;86;72;
49914;PMS5003;35806;47.958;13.158;2024-03-08T07:02:56;85;67;
49914;PMS5003;35806;47.958;13.158;2024-03-08T07:05:24;79;65;
49914;PMS5003;35806;47.958;13.158;2024-03-08T07:07:51;77;64;
49914;PMS5003;35806;47.958;13.158;2024-03-08T07:10:19;79;67;
49914;PMS5003;35806;47.958;13.158;2024-03-08T07:12:46;77;62;
49914;PMS5003;35806;47.958;13.158;2024-03-08T07:15:14;74;63;
49914;PMS5003;35806;47.958;13.158;2024-03-08T07:17:41;93;64;
49914;PMS5003;35806;47.958;13.158;2024-03-08T07:20:10;75;61;
49914;PMS5003;35806;47.958;13.158;2024-03-08T07:22:37;78;69;
49914;PMS5003;35806;47.958;13.158;2024-03-08T07:25:05;67;57;
49914;PMS5003;35806;47.958;13.158;2024-03-08T07:27:34;81;64;
49914;PMS5003;35806;47.958;13.158;2024-03-08T07:30:01;87;69;
49914;PMS5003;35806;47.958;13.158;2024-03-08T07:32:29;77;62;
49914;PMS5003;35806;47.958;13.158;2024-03-08T07:34:56;76;66;
49914;PMS5003;35806;47.958;13.158;2024-03-08T07:37:24;87;66;
49914;PMS5003;35806;47.958;13.158;2024-03-08T07:39:51;84;68;
49914;PMS5003;35806;47.958;13.158;2024-03-08T07:42:18;70;62;
49914;PMS5003;35806;47.958;13.158;2024-03-08T07:44:49;81;63;
49914;PMS5003;35806;47.958;13.158;2024-03-08T07:47:16;75;59;
49914;PMS5003;35806;47.958;13.158;2024-03-08T07:49:48;80;65;
49914;PMS5003;35806;47.958;13.158;2024-03-08T07:52:21;66;62;
49914;PMS5003;35806;47.958;13.158;2024-03-08T07:55:00;76;60;
49914;PMS5003;35806;47.958;13.158;2024-03-08T07:57:28;73;61;
49914;PMS5003;35806;47.958;13.158;2024-03-08T07:59:56;69;59;
49914;PMS5003;35806;47.958;13.158;2024-03-08T08:02:28;78;58;
49914;PMS5003;35806;47.958;13.158;2024-03-08T08:04:56;69;61;
49914;PMS5003;35806;47.958;13.158;2024-03-08T08:07:23;61;52;
49914;PMS5003;35806;47.958;13.158;2024-03-08T08:09:52;61;53;
49914;PMS5003;35806;47.958;13.158;2024-03-08T08:12:19;79;63;
49914;PMS5003;35806;47.958;13.158;2024-03-08T08:14:46;81;67;
49914;PMS5003;35806;47.958;13.158;2024-03-08T08:17:13;78;66;
49914;PMS5003;35806;47.958;13.158;2024-03-08T08:19:41;67;57;
49914;PMS5003;35806;47.958;13.158;2024-03-08T08:22:09;79;61;
49914;PMS5003;35806;47.958;13.158;2024-03-08T08:24:36;79;65;
49914;PMS5003;35806;47.958;13.158;2024-03-08T08:27:04;82;67;
49914;PMS5003;35806;47.958;13.158;2024-03-08T08:29:32;70;62;
49914;PMS5003;35806;47.958;13.158;2024-03-08T08:32:00;72;61;
49914;PMS5003;35806;47.958;13.158;2024-03-08T08:34:30;75;65;
49914;PMS5003;35806;47.958;13.158;2024-03-08T08:36:57;78;56;
49914;PMS5003;35806;47.958;13.158;2024-03-08T08:39:25;84;63;
49914;PMS5003;35806;47.958;13.158;2024-03-08T08:41:52;61;57;
49914;PMS5003;35806;47.958;13.158;2024-03-08T08:44:22;71;66;
49914;PMS5003;35806;47.958;13.158;2024-03-08T08:46:49;67;57;
49914;PMS5003;35806;47.958;13.158;2024-03-08T08:49:16;72;64;
49914;PMS5003;35806;47.958;13.158;2024-03-08T08:51:49;64;58;
49914;PMS5003;35806;47.958;13.158;2024-03-08T08:54:16;66;57;
49914;PMS5003;35806;47.958;13.158;2024-03-08T08:56:44;71;63;
49914;PMS5003;35806;47.958;13.158;2024-03-08T08:59:11;72;61;
49914;PMS5003;35806;47.958;13.158;2024-03-08T09:01:38;68;56;
49914;PMS5003;35806;47.958;13.158;2024-03-08T09:04:06;72;63;
49914;PMS5003;35806;47.958;13.158;2024-03-08T09:06:33;62;56;
49914;PMS5003;35806;47.958;13.158;2024-03-08T09:09:00;72;64;
49914;PMS5003;35806;47.958;13.158;2024-03-08T09:11:31;58;54;
49914;PMS5003;35806;47.958;13.158;2024-03-08T09:13:58;75;65;
49914;PMS5003;35806;47.958;13.158;2024-03-08T09:16:25;57;52;
49914;PMS5003;35806;47.958;13.158;2024-03-08T09:18:53;71;62;
49914;PMS5003;35806;47.958;13.158;2024-03-08T09:21:25;63;55;
49914;PMS5003;35806;47.958;13.158;2024-03-08T09:23:53;74;66;
49914;PMS5003;35806;47.958;13.158;2024-03-08T09:26:21;72;65;
49914;PMS5003;35806;47.958;13.158;2024-03-08T09:28:48;57;55;
49914;PMS5003;35806;47.958;13.158;2024-03-08T09:31:15;62;58;
49914;PMS5003;35806;47.958;13.158;2024-03-08T09:33:42;75;63;
49914;PMS5003;35806;47.958;13.158;2024-03-08T09:36:10;72;65;
49914;PMS5003;35806;47.958;13.158;2024-03-08T09:38:37;60;56;
49914;PMS5003;35806;47.958;13.158;2024-03-08T09:41:05;67;59;
49914;PMS5003;35806;47.958;13.158;2024-03-08T09:43:33;71;63;
49914;PMS5003;35806;47.958;13.158;2024-03-08T09:46:00;69;63;
49914;PMS5003;35806;47.958;13.158;2024-03-08T09:48:30;61;56;
49914;PMS5003;35806;47.958;13.158;2024-03-08T09:50:58;65;56;
49914;PMS5003;35806;47.958;13.158;2024-03-08T09:53:26;64;56;
49914;PMS5003;35806;47.958;13.158;2024-03-08T09:55:53;61;52;
49914;PMS5003;35806;47.958;13.158;2024-03-08T09:58:21;58;50;
49914;PMS5003;35806;47.958;13.158;2024-03-08T10:00:48;54;52;
49914;PMS5003;35806;47.958;13.158;2024-03-08T10:03:16;51;48;
49914;PMS5003;35806;47.958;13.158;2024-03-08T10:05:43;61;56;
49914;PMS5003;35806;47.958;13.158;2024-03-08T10:08:10;64;51;
49914;PMS5003;35806;47.958;13.158;2024-03-08T10:10:38;60;52;
49914;PMS5003;35806;47.958;13.158;2024-03-08T10:13:06;57;53;
49914;PMS5003;35806;47.958;13.158;2024-03-08T10:15:33;53;51;
49914;PMS5003;35806;47.958;13.158;2024-03-08T10:18:00;55;53;
49914;PMS5003;35806;47.958;13.158;2024-03-08T10:20:30;52;45;
49914;PMS5003;35806;47.958;13.158;2024-03-08T10:22:58;64;57;
49914;PMS5003;35806;47.958;13.158;2024-03-08T10:25:26;60;52;
49914;PMS5003;35806;47.958;13.158;2024-03-08T10:27:54;56;49;
49914;PMS5003;35806;47.958;13.158;2024-03-08T10:30:23;60;57;
49914;PMS5003;35806;47.958;13.158;2024-03-08T10:32:50;60;50;
49914;PMS5003;35806;47.958;13.158;2024-03-08T10:35:18;66;57;
49914;PMS5003;35806;47.958;13.158;2024-03-08T10:37:46;60;53;
49914;PMS5003;35806;47.958;13.158;2024-03-08T10:40:16;55;54;
49914;PMS5003;35806;47.958;13.158;2024-03-08T10:42:50;59;55;
49914;PMS5003;35806;47.958;13.158;2024-03-08T10:45:22;54;51;
49914;PMS5003;35806;47.958;13.158;2024-03-08T10:48:02;58;47;
49914;PMS5003;35806;47.958;13.158;2024-03-08T10:50:44;57;56;
49914;PMS5003;35806;47.958;13.158;2024-03-08T10:53:13;65;56;
49914;PMS5003;35806;47.958;13.158;2024-03-08T10:55:42;58;50;
49914;PMS5003;35806;47.958;13.158;2024-03-08T10:58:10;71;57;
49914;PMS5003;35806;47.958;13.158;2024-03-08T11:00:42;61;53;
49914;PMS5003;35806;47.958;13.158;2024-03-08T11:03:25;62;54;
49914;PMS5003;35806;47.958;13.158;2024-03-08T11:06:13;60;49;
49914;PMS5003;35806;47.958;13.158;2024-03-08T11:08:43;56;52;
49914;PMS5003;35806;47.958;13.158;2024-03-08T11:11:28;57;53;
49914;PMS5003;35806;47.958;13.158;2024-03-08T11:13:57;56;48;
49914;PMS5003;35806;47.958;13.158;2024-03-08T11:16:40;59;55;
49914;PMS5003;35806;47.958;13.158;2024-03-08T11:19:26;51;47;
49914;PMS5003;35806;47.958;13.158;2024-03-08T11:21:57;52;47;
49914;PMS5003;35806;47.958;13.158;2024-03-08T11:24:25;64;58;
49914;PMS5003;35806;47.958;13.158;2024-03-08T11:26:54;60;47;
49914;PMS5003;35806;47.958;13.158;2024-03-08T11:29:40;64;57;
49914;PMS5003;35806;47.958;13.158;2024-03-08T11:32:08;53;48;
49914;PMS5003;35806;47.958;13.158;2024-03-08T11:34:39;57;49;
49914;PMS5003;35806;47.958;13.158;2024-03-08T11:37:13;58;54;
49914;PMS5003;35806;47.958;13.158;2024-03-08T11:39:46;65;59;
49914;PMS5003;35806;47.958;13.158;2024-03-08T11:42:14;58;53;
49914;PMS5003;35806;47.958;13.158;2024-03-08T11:44:42;55;50;
49914;PMS5003;35806;47.958;13.158;2024-03-08T11:47:09;62;51;
49914;PMS5003;35806;47.958;13.158;2024-03-08T11:49:36;59;51;
49914;PMS5003;35806;47.958;13.158;2024-03-08T11:52:04;62;55;
49914;PMS5003;35806;47.958;13.158;2024-03-08T11:54:33;63;55;
49914;PMS5003;35806;47.958;13.158;2024-03-08T11:57:00;56;53;
49914;PMS5003;35806;47.958;13.158;2024-03-08T11:59:28;50;46;
49914;PMS5003;35806;47.958;13.158;2024-03-08T12:02:01;57;51;
49914;PMS5003;35806;47.958;13.158;2024-03-08T12:04:30;60;53;
49914;PMS5003;35806;47.958;13.158;2024-03-08T12:06:59;63;52;
49914;PMS5003;35806;47.958;13.158;2024-03-08T12:09:27;51;48;
49914;PMS5003;35806;47.958;13.158;2024-03-08T12:11:54;51;44;
49914;PMS5003;35806;47.958;13.158;2024-03-08T12:14:21;52;48;
49914;PMS5003;35806;47.958;13.158;2024-03-08T12:16:50;51;45;
49914;PMS5003;35806;47.958;13.158;2024-03-08T12:19:17;44;43;
49914;PMS5003;35806;47.958;13.158;2024-03-08T12:21:45;51;43;
49914;PMS5003;35806;47.958;13.158;2024-03-08T12:24:17;46;45;
49914;PMS5003;35806;47.958;13.158;2024-03-08T12:24:38;44;44;
49914;PMS5003;35806;47.958;13.158;2024-03-08T12:27:17;49;38;
49914;PMS5003;35806;47.958;13.158;2024-03-08T12:29:46;48;41;
49914;PMS5003;35806;47.958;13.158;2024-03-08T12:32:13;49;44;
49914;PMS5003;35806;47.958;13.158;2024-03-08T12:34:42;45;40;
49914;PMS5003;35806;47.958;13.158;2024-03-08T12:37:09;51;45;
49914;PMS5003;35806;47.958;13.158;2024-03-08T12:39:37;49;42;
49914;PMS5003;35806;47.958;13.158;2024-03-08T12:42:07;47;44;
49914;PMS5003;35806;47.958;13.158;2024-03-08T12:44:35;46;43;
49914;PMS5003;35806;47.958;13.158;2024-03-08T12:47:07;50;42;
49914;PMS5003;35806;47.958;13.158;2024-03-08T12:49:35;49;46;
49914;PMS5003;35806;47.958;13.158;2024-03-08T12:52:02;49;46;
49914;PMS5003;35806;47.958;13.158;2024-03-08T12:54:30;59;49;
49914;PMS5003;35806;47.958;13.158;2024-03-08T12:56:58;64;49;
49914;PMS5003;35806;47.958;13.158;2024-03-08T12:59:25;49;43;
49914;PMS5003;35806;47.958;13.158;2024-03-08T13:01:52;53;46;
49914;PMS5003;35806;47.958;13.158;2024-03-08T13:04:20;43;39;
49914;PMS5003;35806;47.958;13.158;2024-03-08T13:06:48;52;45;
49914;PMS5003;35806;47.958;13.158;2024-03-08T13:09:16;45;41;
49914;PMS5003;35806;47.958;13.158;2024-03-08T13:11:44;43;42;
49914;PMS5003;35806;47.958;13.158;2024-03-08T13:14:12;49;41;
49914;PMS5003;35806;47.958;13.158;2024-03-08T13:16:39;54;46;
49914;PMS5003;35806;47.958;13.158;2024-03-08T13:19:06;46;36;
49914;PMS5003;35806;47.958;13.158;2024-03-08T13:21:34;44;44;
49914;PMS5003;35806;47.958;13.158;2024-03-08T13:24:07;43;39;
49914;PMS5003;35806;47.958;13.158;2024-03-08T13:26:35;47;39;
49914;PMS5003;35806;47.958;13.158;2024-03-08T13:29:03;42;39;
49914;PMS5003;35806;47.958;13.158;2024-03-08T13:31:30;48;39;
49914;PMS5003;35806;47.958;13.158;2024-03-08T13:33:57;48;39;
49914;PMS5003;35806;47.958;13.158;2024-03-08T13:36:24;44;38;
49914;PMS5003;35806;47.958;13.158;2024-03-08T13:38:52;43;40;
49914;PMS5003;35806;47.958;13.158;2024-03-08T13:41:20;45;39;
49914;PMS5003;35806;47.958;13.158;2024-03-08T13:43:48;44;40;
49914;PMS5003;35806;47.958;13.158;2024-03-08T13:46:15;47;42;
49914;PMS5003;35806;47.958;13.158;2024-03-08T13:48:43;46;39;
49914;PMS5003;35806;47.958;13.158;2024-03-08T13:51:12;49;45;
49914;PMS5003;35806;47.958;13.158;2024-03-08T13:53:40;40;39;
49914;PMS5003;35806;47.958;13.158;2024-03-08T13:56:07;44;37;
49914;PMS5003;35806;47.958;13.158;2024-03-08T13:58:35;43;36;
49914;PMS5003;35806;47.958;13.158;2024-03-08T14:01:07;60;57;
49914;PMS5003;35806;47.958;13.158;2024-03-08T14:03:44;51;42;
49914;PMS5003;35806;47.958;13.158;2024-03-08T14:06:12;43;40;
49914;PMS5003;35806;47.958;13.158;2024-03-08T14:08:39;48;42;
49914;PMS5003;35806;47.958;13.158;2024-03-08T14:11:06;40;39;
49914;PMS5003;35806;47.958;13.158;2024-03-08T14:13:45;49;40;
49914;PMS5003;35806;47.958;13.158;2024-03-08T14:16:12;43;39;
49914;PMS5003;35806;47.958;13.158;2024-03-08T14:18:40;38;34;
49914;PMS5003;35806;47.958;13.158;2024-03-08T14:21:07;46;41;
49914;PMS5003;35806;47.958;13.158;2024-03-08T14:23:34;39;36;
49914;PMS5003;35806;47.958;13.158;2024-03-08T14:26:02;47;38;
49914;PMS5003;35806;47.958;13.158;2024-03-08T14:28:30;44;42;
49914;PMS5003;35806;47.958;13.158;2024-03-08T14:31:03;42;39;
49914;PMS5003;35806;47.958;13.158;2024-03-08T14:33:30;42;39;
49914;PMS5003;35806;47.958;13.158;2024-03-08T14:35:58;48;43;
49914;PMS5003;35806;47.958;13.158;2024-03-08T14:38:25;48;46;
49914;PMS5003;35806;47.958;13.158;2024-03-08T14:40:53;49;42;
49914;PMS5003;35806;47.958;13.158;2024-03-08T14:43:22;46;41;
49914;PMS5003;35806;47.958;13.158;2024-03-08T14:45:49;42;37;
49914;PMS5003;35806;47.958;13.158;2024-03-08T14:48:17;45;40;
49914;PMS5003;35806;47.958;13.158;2024-03-08T14:50:44;41;33;
49914;PMS5003;35806;47.958;13.158;2024-03-08T14:53:12;38;36;
49914;PMS5003;35806;47.958;13.158;2024-03-08T14:55:39;44;36;
49914;PMS5003;35806;47.958;13.158;2024-03-08T14:58:06;45;41;
49914;PMS5003;35806;47.958;13.158;2024-03-08T15:00:34;44;40;
49914;PMS5003;35806;47.958;13.158;2024-03-08T15:03:01;37;34;
49914;PMS5003;35806;47.958;13.158;2024-03-08T15:05:28;44;41;
49914;PMS5003;35806;47.958;13.158;2024-03-08T15:07:55;43;39;
49914;PMS5003;35806;47.958;13.158;2024-03-08T15:10:27;51;47;
49914;PMS5003;35806;47.958;13.158;2024-03-08T15:12:55;43;35;
49914;PMS5003;35806;47.958;13.158;2024-03-08T15:15:23;44;40;
49914;PMS5003;35806;47.958;13.158;2024-03-08T15:17:50;42;37;
49914;PMS5003;35806;47.958;13.158;2024-03-08T15:20:17;41;34;
49914;PMS5003;35806;47.958;13.158;2024-03-08T15:22:46;40;36;
49914;PMS5003;35806;47.958;13.158;2024-03-08T15:25:14;37;35;
49914;PMS5003;35806;47.958;13.158;2024-03-08T15:27:41;45;41;
49914;PMS5003;35806;47.958;13.158;2024-03-08T15:30:09;44;42;
49914;PMS5003;35806;47.958;13.158;2024-03-08T15:32:36;44;39;
49914;PMS5003;35806;47.958;13.158;2024-03-08T15:35:04;44;36;
49914;PMS5003;35806;47.958;13.158;2024-03-08T15:37:32;44;41;
49914;PMS5003;35806;47.958;13.158;2024-03-08T15:39:59;47;44;
49914;PMS5003;35806;47.958;13.158;2024-03-08T15:42:27;35;31;
49914;PMS5003;35806;47.958;13.158;2024-03-08T15:44:54;46;42;
49914;PMS5003;35806;47.958;13.158;2024-03-08T15:47:21;37;33;
49914;PMS5003;35806;47.958;13.158;2024-03-08T15:49:49;37;35;
49914;PMS5003;35806;47.958;13.158;2024-03-08T15:52:16;46;41;
49914;PMS5003;35806;47.958;13.158;2024-03-08T15:54:54;37;32;
49914;PMS5003;35806;47.958;13.158;2024-03-08T15:57:28;43;38;
49914;PMS5003;35806;47.958;13.158;2024-03-08T15:59:56;42;36;
49914;PMS5003;35806;47.958;13.158;2024-03-08T16:02:58;41;35;
49914;PMS5003;35806;47.958;13.158;2024-03-08T16:05:33;38;34;
49914;PMS5003;35806;47.958;13.158;2024-03-08T16:08:00;37;33;